Time;durP1;ratioP1;P1;durP2;ratioP2;P2;SDS_P1;SDS_P2;PMS_P1;PMS_P2;Temp;Humidity;BMP_temperature;BMP_pressure;BME280_temperature;BME280_humidity;BME280_pressure;Samples;Min_cycle;Max_cycle;Signal;HPM_P1;HPM_P2
2022/10/07 00:00:53;;;;;;;7.93;4.95;;;;;;;13.63;100.00;96813.06;6176413;23;20005;-60
2022/10/07 00:03:21;;;;;;;8.75;5.10;;;;;;;13.60;100.00;96810.69;6176804;23;20000;-66
2022/10/07 00:05:47;;;;;;;10.68;4.88;;;;;;;13.58;100.00;96807.31;6175791;22;20217;-74
2022/10/07 00:08:12;;;;;;;9.18;4.75;;;;;;;13.56;100.00;96814.53;6176883;23;20351;-74
2022/10/07 00:10:42;;;;;;;10.90;5.32;;;;;;;13.52;100.00;96807.84;6176669;23;20009;-74
2022/10/07 00:13:10;;;;;;;7.38;4.90;;;;;;;13.51;100.00;96800.88;6175044;23;20012;-73
2022/10/07 00:15:36;;;;;;;5.35;4.85;;;;;;;13.46;100.00;96810.06;6175912;22;20005;-73
2022/10/07 00:18:02;;;;;;;6.43;4.47;;;;;;;13.45;100.00;96811.03;6176565;23;20074;-73
2022/10/07 00:20:27;;;;;;;6.32;4.75;;;;;;;13.43;100.00;96806.81;6177627;23;20011;-65
2022/10/07 00:22:53;;;;;;;12.93;5.15;;;;;;;13.41;100.00;96809.59;6176479;23;20005;-66
2022/10/07 00:25:19;;;;;;;5.43;4.68;;;;;;;13.39;100.00;96808.88;6175867;23;19997;-67
2022/10/07 00:27:45;;;;;;;8.55;4.78;;;;;;;13.31;100.00;96804.25;6176040;23;20473;-67
2022/10/07 00:30:11;;;;;;;10.88;4.90;;;;;;;13.23;100.00;96804.06;6176687;23;20001;-67
2022/10/07 00:32:36;;;;;;;8.23;4.35;;;;;;;13.18;100.00;96807.13;6176640;23;20033;-67
2022/10/07 00:35:02;;;;;;;7.78;5.65;;;;;;;13.16;100.00;96802.91;6176329;23;20035;-67
2022/10/07 00:37:27;;;;;;;6.43;5.22;;;;;;;13.09;100.00;96802.59;6176638;23;19997;-67
2022/10/07 00:39:52;;;;;;;5.72;5.22;;;;;;;13.02;100.00;96796.16;6176284;23;20065;-62
2022/10/07 00:42:18;;;;;;;6.13;5.38;;;;;;;12.99;100.00;96804.34;6176999;23;20011;-59
2022/10/07 00:44:44;;;;;;;10.25;5.32;;;;;;;12.98;100.00;96807.97;6176307;22;20388;-63
2022/10/07 00:47:39;;;;;;;8.80;5.45;;;;;;;12.94;100.00;96804.72;6176570;23;20419;-63
2022/10/07 00:50:10;;;;;;;8.98;4.55;;;;;;;12.87;100.00;96806.22;6176694;23;20400;-63
2022/10/07 00:52:40;;;;;;;11.73;4.85;;;;;;;12.80;100.00;96805.03;6176600;22;20025;-63
2022/10/07 00:55:11;;;;;;;5.72;5.22;;;;;;;12.73;100.00;96802.09;6176213;23;20004;-63
2022/10/07 00:57:38;;;;;;;6.05;4.80;;;;;;;12.67;100.00;96797.31;6176401;23;20064;-63
2022/10/07 01:00:06;;;;;;;6.13;5.03;;;;;;;12.60;100.00;96802.28;6176792;23;20028;-66
2022/10/07 01:02:33;;;;;;;6.85;5.22;;;;;;;12.59;100.00;96797.94;6177176;23;20343;-68
2022/10/07 01:05:02;;;;;;;5.80;5.10;;;;;;;12.57;100.00;96789.31;6176643;22;20036;-67
2022/10/07 01:07:28;;;;;;;7.90;5.63;;;;;;;12.57;100.00;96790.16;6176932;23;20076;-67
2022/10/07 01:09:55;;;;;;;5.95;5.35;;;;;;;12.53;100.00;96783.47;6175811;23;20035;-66
2022/10/07 01:12:34;;;;;;;6.80;5.75;;;;;;;12.46;100.00;96787.56;6176632;23;20000;-67
2022/10/07 01:15:10;;;;;;;7.68;5.05;;;;;;;12.44;100.00;96774.50;6176219;23;20063;-68
2022/10/07 01:17:41;;;;;;;9.10;5.38;;;;;;;12.41;100.00;96776.53;6175845;23;20032;-68
2022/10/07 01:20:21;;;;;;;7.05;5.05;;;;;;;12.37;100.00;96781.22;6176760;23;20043;-60
2022/10/07 01:22:55;;;;;;;8.10;5.47;;;;;;;12.35;100.00;96782.34;6176282;23;20077;-60
2022/10/07 01:25:33;;;;;;;13.77;5.80;;;;;;;12.31;100.00;96777.31;6175696;23;20084;-61
2022/10/07 01:28:06;;;;;;;6.13;5.63;;;;;;;12.25;100.00;96774.34;6176305;23;20262;-60
2022/10/07 01:30:35;;;;;;;10.18;5.00;;;;;;;12.20;100.00;96768.59;6177450;22;20122;-60
2022/10/07 01:33:09;;;;;;;9.23;5.30;;;;;;;12.20;100.00;96763.31;6176604;23;20084;-60
2022/10/07 01:35:36;;;;;;;8.30;5.30;;;;;;;12.19;100.00;96759.81;6175665;23;20001;-60
2022/10/07 01:38:08;;;;;;;7.63;5.32;;;;;;;12.18;100.00;96766.06;6176376;22;20415;-67
2022/10/07 01:41:11;;;;;;;6.55;4.93;;;;;;;12.16;100.00;96762.72;6177041;23;19997;-63
2022/10/07 01:43:39;;;;;;;8.13;5.70;;;;;;;12.08;100.00;96765.16;6170564;23;20001;-66
2022/10/07 01:46:08;;;;;;;9.07;4.97;;;;;;;12.01;100.00;96762.19;6175654;23;20471;-66
2022/10/07 01:48:33;;;;;;;6.95;5.65;;;;;;;12.02;100.00;96758.56;6177028;23;20012;-66
2022/10/07 01:51:01;;;;;;;11.38;6.13;;;;;;;12.00;100.00;96757.84;6177121;23;20028;-66
2022/10/07 01:53:26;;;;;;;8.95;5.80;;;;;;;11.95;100.00;96752.09;6176965;23;20028;-66
2022/10/07 01:56:28;;;;;;;6.93;5.93;;;;;;;11.91;100.00;96748.84;6175541;23;20012;-66
2022/10/07 01:59:15;;;;;;;8.73;5.72;;;;;;;11.87;100.00;96742.97;6150527;22;20011;-66
2022/10/07 02:02:09;;;;;;;9.65;5.25;;;;;;;11.86;100.00;96743.94;6176071;23;19997;-67
2022/10/07 02:04:46;;;;;;;7.60;5.40;;;;;;;11.83;100.00;96743.38;6176306;23;20387;-67
2022/10/07 02:07:30;;;;;;;5.60;5.18;;;;;;;11.81;100.00;96747.91;6176188;23;20075;-67
2022/10/07 02:10:12;;;;;;;6.20;5.45;;;;;;;11.77;100.00;96749.13;6177175;23;20050;-67
2022/10/07 02:12:48;;;;;;;8.32;5.50;;;;;;;11.75;100.00;96738.72;6176184;23;20400;-67
2022/10/07 02:15:24;;;;;;;8.57;5.90;;;;;;;11.74;100.00;96744.94;6176174;22;20015;-67
2022/10/07 02:18:01;;;;;;;7.47;5.35;;;;;;;11.74;100.00;96737.03;6176679;23;20017;-62
2022/10/07 02:20:31;;;;;;;5.45;5.05;;;;;;;11.73;100.00;96741.47;6176277;23;20001;-63
2022/10/07 02:23:01;;;;;;;6.25;5.75;;;;;;;11.71;100.00;96737.25;6176561;23;20000;-63
2022/10/07 02:25:28;;;;;;;6.22;5.63;;;;;;;11.66;100.00;96732.38;6175682;22;20020;-63
2022/10/07 02:27:55;;;;;;;10.20;5.75;;;;;;;11.63;100.00;96729.97;6176263;23;20004;-62
2022/10/07 02:30:21;;;;;;;12.68;5.32;;;;;;;11.58;100.00;96732.97;6176635;23;20004;-63
2022/10/07 02:32:52;;;;;;;7.35;5.72;;;;;;;11.53;100.00;96729.03;6176786;23;20011;-63
2022/10/07 02:35:31;;;;;;;5.85;5.25;;;;;;;11.50;100.00;96724.00;6175843;23;20012;-73
2022/10/07 02:38:01;;;;;;;6.45;5.93;;;;;;;11.52;100.00;96730.84;6176847;22;20008;-62
2022/10/07 02:40:35;;;;;;;6.35;5.20;;;;;;;11.53;100.00;96734.31;6175414;23;20064;-58
2022/10/07 02:43:20;;;;;;;6.57;5.53;;;;;;;11.53;100.00;96729.88;6176958;23;20016;-56
2022/10/07 02:45:57;;;;;;;8.00;5.43;;;;;;;11.54;100.00;96723.66;6175813;23;20533;-58
2022/10/07 02:48:38;;;;;;;5.85;5.22;;;;;;;11.51;100.00;96725.69;6176452;23;20009;-59
2022/10/07 02:51:09;;;;;;;6.22;5.60;;;;;;;11.48;100.00;96720.66;6176537;23;20382;-59
2022/10/07 02:53:36;;;;;;;6.53;5.93;;;;;;;11.43;100.00;96713.94;6175808;23;20025;-59
2022/10/07 02:56:03;;;;;;;6.78;5.65;;;;;;;11.43;100.00;96715.75;6175631;23;20049;-63
2022/10/07 02:58:28;;;;;;;6.00;5.40;;;;;;;11.40;100.00;96714.19;6176660;23;20001;-66
2022/10/07 03:00:58;;;;;;;7.85;6.30;;;;;;;11.40;100.00;96708.94;6176572;23;20067;-65
2022/10/07 03:03:24;;;;;;;6.03;5.53;;;;;;;11.38;100.00;96707.38;6176246;23;20002;-66
2022/10/07 03:05:50;;;;;;;13.10;5.93;;;;;;;11.34;100.00;96704.13;6149165;22;20094;-65
2022/10/07 03:08:16;;;;;;;5.95;5.55;;;;;;;11.35;100.00;96707.59;6175923;23;20046;-66
2022/10/07 03:10:42;;;;;;;6.20;5.70;;;;;;;11.33;100.00;96707.72;6176146;23;19998;-67
2022/10/07 03:13:08;;;;;;;7.72;5.32;;;;;;;11.29;100.00;96708.94;6176189;23;20005;-66
2022/10/07 03:15:36;;;;;;;8.43;6.03;;;;;;;11.29;100.00;96701.00;6175241;23;20005;-64
2022/10/07 03:18:04;;;;;;;5.72;5.20;;;;;;;11.26;100.00;96703.91;6176179;23;20374;-58
2022/10/07 03:20:31;;;;;;;6.43;5.50;;;;;;;11.25;100.00;96700.41;6176680;22;20351;-59
2022/10/07 03:22:58;;;;;;;6.97;5.25;;;;;;;11.22;100.00;96692.75;6175937;23;20009;-59
2022/10/07 03:25:25;;;;;;;10.40;5.90;;;;;;;11.21;100.00;96695.53;6175453;23;20005;-58
2022/10/07 03:27:51;;;;;;;6.05;5.45;;;;;;;11.17;100.00;96693.13;6175384;23;20008;-58
2022/10/07 03:30:19;;;;;;;5.95;5.45;;;;;;;11.16;100.00;96691.47;6176200;23;20379;-59
2022/10/07 03:32:45;;;;;;;7.97;5.63;;;;;;;11.16;100.00;96702.00;6175945;23;20450;-72
2022/10/07 03:35:10;;;;;;;5.72;5.00;;;;;;;11.15;100.00;96699.47;6176882;23;20001;-60
2022/10/07 03:37:35;;;;;;;6.93;5.72;;;;;;;11.12;100.00;96699.72;6176497;23;20440;-60
2022/10/07 03:40:01;;;;;;;11.60;6.15;;;;;;;11.06;100.00;96698.41;6177949;23;20512;-60
2022/10/07 03:42:26;;;;;;;6.20;5.70;;;;;;;11.00;100.00;96702.34;6177159;23;20005;-60
2022/10/07 03:44:52;;;;;;;7.20;5.95;;;;;;;10.96;100.00;96692.19;6176728;23;20828;-60
2022/10/07 03:47:17;;;;;;;13.00;5.88;;;;;;;10.95;100.00;96693.16;6176649;23;20054;-59
2022/10/07 03:49:43;;;;;;;6.18;5.63;;;;;;;10.92;100.00;96685.44;6177118;23;20443;-60
2022/10/07 03:52:09;;;;;;;6.72;6.10;;;;;;;10.92;100.00;96682.81;6177500;23;20024;-63
2022/10/07 03:54:34;;;;;;;5.82;5.32;;;;;;;10.94;100.00;96680.91;6176579;23;19997;-63
2022/10/07 03:57:00;;;;;;;8.25;5.65;;;;;;;10.91;100.00;96678.50;6176560;23;20044;-63
2022/10/07 03:59:25;;;;;;;6.65;5.60;;;;;;;10.87;100.00;96675.28;6177306;22;20012;-63
2022/10/07 04:01:50;;;;;;;6.07;5.18;;;;;;;10.84;100.00;96673.72;6177271;23;20001;-62
2022/10/07 04:04:16;;;;;;;7.03;5.60;;;;;;;10.82;100.00;96683.53;6177174;23;20004;-63
2022/10/07 04:06:42;;;;;;;7.07;5.63;;;;;;;10.79;100.00;96681.16;6149837;23;20080;-63
2022/10/07 04:09:10;;;;;;;5.78;5.38;;;;;;;10.80;100.00;96679.34;6177280;23;20008;-63
2022/10/07 04:11:39;;;;;;;7.18;5.65;;;;;;;10.79;100.00;96683.78;6177375;23;20419;-59
2022/10/07 04:14:04;;;;;;;7.10;5.68;;;;;;;10.77;100.00;96677.81;6177083;23;20013;-67
2022/10/07 04:16:30;;;;;;;8.38;5.57;;;;;;;10.75;100.00;96675.28;6176775;23;19997;-72
2022/10/07 04:18:55;;;;;;;8.93;6.00;;;;;;;10.74;100.00;96676.25;6176280;23;20367;-72
2022/10/07 04:21:22;;;;;;;6.90;5.55;;;;;;;10.74;100.00;96680.69;6177222;23;20007;-73
2022/10/07 04:23:47;;;;;;;5.50;5.10;;;;;;;10.73;100.00;96676.38;6177219;23;19993;-72
2022/10/07 04:26:13;;;;;;;6.03;5.47;;;;;;;10.73;100.00;96673.75;6176212;23;20001;-73
2022/10/07 04:28:39;;;;;;;8.45;5.68;;;;;;;10.71;100.00;96673.00;6176842;23;20382;-73
2022/10/07 04:31:07;;;;;;;6.28;5.68;;;;;;;10.66;100.00;96677.78;6177189;23;20439;-65
2022/10/07 04:33:33;;;;;;;6.85;6.20;;;;;;;10.61;100.00;96678.16;6177228;23;20013;-66
2022/10/07 04:36:04;;;;;;;8.50;5.90;;;;;;;10.59;100.00;96677.41;6176581;23;20004;-66
2022/10/07 04:38:31;;;;;;;6.60;5.82;;;;;;;10.58;100.00;96676.59;6177043;23;19997;-66
2022/10/07 04:40:57;;;;;;;6.03;5.68;;;;;;;10.53;100.00;96683.16;6176710;23;20001;-67
2022/10/07 04:43:23;;;;;;;7.13;6.45;;;;;;;10.58;100.00;96681.00;6176917;23;20405;-66
2022/10/07 04:45:52;;;;;;;6.90;6.30;;;;;;;10.67;100.00;96684.72;6175795;22;20013;-66
2022/10/07 04:48:20;;;;;;;8.05;6.43;;;;;;;10.77;100.00;96684.84;6176544;22;20058;-67
2022/10/07 04:50:46;;;;;;;7.72;6.90;;;;;;;10.83;100.00;96687.84;6177109;23;20001;-63
2022/10/07 04:53:13;;;;;;;7.05;5.85;;;;;;;10.88;100.00;96679.59;6177211;22;20012;-66
2022/10/07 04:55:41;;;;;;;6.93;6.38;;;;;;;10.95;100.00;96687.88;6176133;23;20012;-60
2022/10/07 04:58:07;;;;;;;10.25;6.50;;;;;;;11.00;100.00;96678.63;6176431;23;20042;-60
2022/10/07 05:00:33;;;;;;;7.40;6.70;;;;;;;11.07;100.00;96681.63;6177253;23;20028;-61
2022/10/07 05:02:59;;;;;;;10.05;7.10;;;;;;;11.11;100.00;96680.41;6177181;23;19993;-60
2022/10/07 05:05:26;;;;;;;8.23;7.15;;;;;;;11.14;100.00;96682.81;6176546;23;20016;-60
2022/10/07 05:07:53;;;;;;;10.95;7.18;;;;;;;11.17;100.00;96679.97;6176448;23;20000;-59
2022/10/07 05:10:19;;;;;;;7.72;7.03;;;;;;;11.24;100.00;96687.38;6177315;23;20004;-67
2022/10/07 05:12:44;;;;;;;7.78;6.97;;;;;;;11.29;100.00;96686.06;6150641;22;20316;-60
2022/10/07 05:15:11;;;;;;;8.73;6.68;;;;;;;11.33;100.00;96681.34;6176468;23;20005;-60
2022/10/07 05:17:39;;;;;;;8.63;6.82;;;;;;;11.37;100.00;96682.78;6176270;23;20001;-61
2022/10/07 05:20:05;;;;;;;10.95;6.60;;;;;;;11.41;100.00;96683.38;6177022;23;20008;-61
2022/10/07 05:22:32;;;;;;;7.70;6.97;;;;;;;11.43;100.00;96674.41;6177351;23;20020;-61
2022/10/07 05:24:57;;;;;;;15.18;7.40;;;;;;;11.45;100.00;96675.13;6176189;23;19993;-60
2022/10/07 05:27:22;;;;;;;11.43;7.72;;;;;;;11.50;100.00;96671.25;6175830;23;20016;-60
2022/10/07 05:29:48;;;;;;;8.25;7.50;;;;;;;11.55;100.00;96680.50;6176864;23;20223;-66
2022/10/07 05:32:14;;;;;;;7.55;6.82;;;;;;;11.60;100.00;96680.94;6176639;23;20046;-67
2022/10/07 05:34:40;;;;;;;7.88;7.03;;;;;;;11.65;100.00;96675.31;6176527;23;20012;-67
2022/10/07 05:37:05;;;;;;;7.47;6.80;;;;;;;11.68;100.00;96679.47;6175264;23;20343;-67
2022/10/07 05:39:30;;;;;;;8.98;7.25;;;;;;;11.66;100.00;96678.75;6176697;23;20324;-66
2022/10/07 05:41:57;;;;;;;8.50;7.72;;;;;;;11.61;100.00;96674.72;6176270;23;20236;-66
2022/10/07 05:44:23;;;;;;;10.45;7.82;;;;;;;11.61;100.00;96684.44;6176222;23;20381;-68
2022/10/07 05:46:48;;;;;;;7.88;7.20;;;;;;;11.61;100.00;96684.44;6175855;23;20428;-67
2022/10/07 05:49:14;;;;;;;10.07;6.72;;;;;;;11.61;100.00;96668.59;6176387;22;20001;-61
2022/10/07 05:51:40;;;;;;;8.52;6.60;;;;;;;11.63;100.00;96677.22;6176389;23;20001;-62
2022/10/07 05:54:05;;;;;;;7.68;6.78;;;;;;;11.64;100.00;96673.63;6147080;22;20047;-62
2022/10/07 05:56:31;;;;;;;9.65;6.63;;;;;;;11.64;100.00;96667.50;6174059;23;20005;-63
2022/10/07 05:58:56;;;;;;;7.72;6.22;;;;;;;11.63;100.00;96674.59;6176371;22;20401;-61
2022/10/07 06:01:24;;;;;;;7.00;6.43;;;;;;;11.61;100.00;96681.78;6145336;22;20009;-64
2022/10/07 06:03:56;;;;;;;10.93;6.25;;;;;;;11.59;100.00;96676.63;6148780;23;19996;-63
2022/10/07 06:06:22;;;;;;;8.13;6.43;;;;;;;11.61;100.00;96676.53;6174558;23;20005;-64
2022/10/07 06:08:49;;;;;;;7.95;7.15;;;;;;;11.66;100.00;96673.50;6176094;23;20004;-63
2022/10/07 06:14:00;;;;;;;11.05;6.50;;;;;;;11.66;100.00;96676.97;6176318;23;20078;-59
2022/10/07 06:16:26;;;;;;;6.68;6.00;;;;;;;11.70;100.00;96681.03;6175735;23;20435;-60
2022/10/07 06:18:52;;;;;;;7.60;5.75;;;;;;;11.73;100.00;96679.97;6175955;23;20017;-60
2022/10/07 06:21:19;;;;;;;6.22;5.63;;;;;;;11.75;100.00;96681.50;6176713;23;20000;-60
2022/10/07 06:23:52;;;;;;;7.97;5.50;;;;;;;11.78;100.00;96674.28;6177127;23;20018;-60
2022/10/07 06:26:19;;;;;;;7.25;5.25;;;;;;;11.77;100.00;96685.81;6176594;23;19997;-66
2022/10/07 06:28:44;;;;;;;6.22;5.72;;;;;;;11.77;100.00;96685.81;6177241;23;20005;-63
2022/10/07 06:31:12;;;;;;;9.40;5.85;;;;;;;11.80;100.00;96689.03;6175961;23;20047;-64
2022/10/07 06:33:38;;;;;;;6.72;5.88;;;;;;;11.82;100.00;96683.63;6177181;23;20009;-64
2022/10/07 06:36:06;;;;;;;8.23;6.65;;;;;;;11.87;100.00;96692.03;6177647;23;20031;-64
2022/10/07 06:38:31;;;;;;;9.40;6.32;;;;;;;11.95;100.00;96691.41;6177354;23;20554;-63
2022/10/07 06:40:58;;;;;;;10.63;6.60;;;;;;;11.99;100.00;96696.28;6176882;23;19997;-64
2022/10/07 06:43:27;;;;;;;6.97;6.28;;;;;;;11.98;100.00;96699.88;6176219;23;20008;-64
2022/10/07 06:46:00;;;;;;;10.73;6.40;;;;;;;12.00;100.00;96703.22;6176349;23;20020;-58
2022/10/07 06:48:27;;;;;;;7.22;5.88;;;;;;;12.07;100.00;96692.22;6176126;23;20075;-63
2022/10/07 06:50:54;;;;;;;7.38;5.63;;;;;;;12.13;100.00;96695.16;6176377;23;20008;-69
2022/10/07 06:53:20;;;;;;;8.52;7.65;;;;;;;12.21;100.00;96685.78;6176490;23;20001;-68
2022/10/07 06:55:46;;;;;;;8.38;7.03;;;;;;;12.29;100.00;96691.25;6176587;23;20001;-66
2022/10/07 06:58:11;;;;;;;8.10;7.20;;;;;;;12.41;100.00;96692.03;6150335;22;20012;-67
2022/10/07 07:00:37;;;;;;;9.48;6.57;;;;;;;12.50;100.00;96690.44;6177036;23;20029;-67
2022/10/07 07:03:03;;;;;;;15.48;6.70;;;;;;;12.55;100.00;96689.09;6176469;23;20005;-65
2022/10/07 07:05:34;;;;;;;12.18;5.60;;;;;;;12.68;100.00;96685.38;6176544;23;20001;-68
2022/10/07 07:07:59;;;;;;;8.02;5.97;;;;;;;12.70;100.00;96694.00;6177234;23;20001;-69
2022/10/07 07:10:25;;;;;;;6.30;5.80;;;;;;;12.70;100.00;96686.94;6177356;23;20076;-59
2022/10/07 07:12:54;;;;;;;9.32;6.35;;;;;;;12.69;100.00;96687.06;6176754;23;20420;-60
2022/10/07 07:15:20;;;;;;;9.50;5.88;;;;;;;12.65;100.00;96685.66;6178078;23;20009;-60
2022/10/07 07:17:46;;;;;;;6.57;5.65;;;;;;;12.54;100.00;96686.56;6177858;23;20008;-59
2022/10/07 07:20:12;;;;;;;10.68;5.32;;;;;;;12.44;100.00;96686.50;6176409;23;19997;-59
2022/10/07 07:22:37;;;;;;;6.97;5.82;;;;;;;12.37;100.00;96686.16;6176880;22;19997;-60
2022/10/07 07:25:03;;;;;;;11.63;6.00;;;;;;;12.31;100.00;96682.25;6176592;23;20001;-66
2022/10/07 07:27:28;;;;;;;8.48;5.90;;;;;;;12.34;100.00;96685.59;6150946;22;20015;-67
2022/10/07 07:29:54;;;;;;;6.60;5.47;;;;;;;12.34;100.00;96683.78;6176300;23;20023;-62
2022/10/07 07:32:19;;;;;;;6.45;5.03;;;;;;;12.32;100.00;96688.38;6176453;23;20001;-64
2022/10/07 07:34:45;;;;;;;6.90;5.22;;;;;;;12.30;100.00;96693.78;6177327;23;20347;-63
2022/10/07 07:37:10;;;;;;;5.70;5.22;;;;;;;12.37;100.00;96690.63;6176136;23;20009;-63
2022/10/07 07:39:36;;;;;;;6.00;5.22;;;;;;;12.49;100.00;96684.31;6177728;23;19997;-63
2022/10/07 07:42:02;;;;;;;5.78;5.20;;;;;;;12.55;100.00;96693.50;6176927;23;19997;-63
2022/10/07 07:44:28;;;;;;;7.97;5.20;;;;;;;12.59;100.00;96681.72;6177393;23;19997;-59
2022/10/07 07:46:54;;;;;;;5.72;5.00;;;;;;;12.71;100.00;96687.75;6176846;23;20436;-66
2022/10/07 07:49:21;;;;;;;5.32;4.82;;;;;;;12.78;100.00;96688.06;6177608;23;20001;-63
2022/10/07 07:51:47;;;;;;;8.52;4.97;;;;;;;12.83;100.00;96691.19;6177737;23;20007;-63
2022/10/07 07:54:12;;;;;;;6.45;4.80;;;;;;;12.93;100.00;96693.84;6177035;23;20302;-63
2022/10/07 07:56:38;;;;;;;9.02;6.13;;;;;;;12.98;100.00;96684.56;6177836;23;20001;-62
2022/10/07 07:59:04;;;;;;;5.85;5.45;;;;;;;13.09;100.00;96688.91;6176786;23;20364;-63
2022/10/07 08:01:30;;;;;;;11.23;4.85;;;;;;;13.19;100.00;96681.03;6177610;23;19997;-62
2022/10/07 08:03:56;;;;;;;6.15;4.50;;;;;;;13.28;100.00;96684.66;6176991;23;20007;-67
2022/10/07 08:06:21;;;;;;;5.28;4.72;;;;;;;13.33;100.00;96688.59;6150843;23;19997;-67
2022/10/07 08:08:47;;;;;;;6.03;4.38;;;;;;;13.38;100.00;96680.25;6177538;23;20050;-68
2022/10/07 08:11:15;;;;;;;7.07;4.35;;;;;;;13.44;100.00;96679.75;6177779;23;20012;-68
2022/10/07 08:13:41;;;;;;;8.32;4.47;;;;;;;13.52;100.00;96686.16;6177622;23;20498;-67
2022/10/07 08:16:13;;;;;;;4.65;4.07;;;;;;;13.55;100.00;96686.72;6177709;23;20012;-67
2022/10/07 08:18:42;;;;;;;4.93;4.43;;;;;;;13.64;100.00;96678.94;6176872;23;20567;-68
2022/10/07 08:21:09;;;;;;;4.75;4.18;;;;;;;13.68;100.00;96681.19;6175696;22;20812;-68
2022/10/07 08:23:36;;;;;;;8.75;3.97;;;;;;;13.71;100.00;96667.66;6175160;23;19997;-65
2022/10/07 08:26:03;;;;;;;4.63;4.22;;;;;;;13.79;100.00;96676.72;6176423;23;20031;-66
2022/10/07 08:28:29;;;;;;;6.35;5.20;;;;;;;13.83;100.00;96678.13;6177143;23;20009;-66
2022/10/07 08:31:02;;;;;;;12.68;4.80;;;;;;;13.85;100.00;96673.53;6176933;23;20001;-68
2022/10/07 08:33:32;;;;;;;4.43;4.03;;;;;;;13.94;100.00;96679.81;6177343;22;20016;-67
2022/10/07 08:35:58;;;;;;;5.55;4.25;;;;;;;13.97;100.00;96668.94;6177020;23;20351;-67
2022/10/07 08:38:27;;;;;;;5.80;4.72;;;;;;;13.98;100.00;96673.25;6177316;23;20043;-66
2022/10/07 08:40:53;;;;;;;6.50;4.90;;;;;;;14.01;100.00;96676.44;6177593;23;20025;-66
2022/10/07 08:43:22;;;;;;;5.15;4.50;;;;;;;14.13;100.00;96668.38;6176942;23;20511;-59
2022/10/07 08:45:50;;;;;;;5.47;4.15;;;;;;;14.19;100.00;96665.16;6176961;23;20324;-65
2022/10/07 08:48:24;;;;;;;5.80;5.18;;;;;;;14.29;100.00;96666.00;6177480;23;20055;-66
2022/10/07 08:51:06;;;;;;;5.80;5.20;;;;;;;14.32;100.00;96655.13;6174847;23;20075;-68
2022/10/07 08:53:35;;;;;;;5.78;5.05;;;;;;;14.40;100.00;96654.41;6176659;23;20005;-67
2022/10/07 08:56:11;;;;;;;5.35;4.95;;;;;;;14.51;100.00;96658.72;6175557;23;20020;-66
2022/10/07 08:58:57;;;;;;;4.90;4.50;;;;;;;14.57;100.00;96652.00;6176827;23;20001;-66
2022/10/07 09:01:29;;;;;;;5.93;4.80;;;;;;;14.64;100.00;96653.09;6175237;22;20133;-67
2022/10/07 09:04:15;;;;;;;7.88;5.32;;;;;;;14.75;100.00;96657.44;6175947;23;20005;-62
2022/10/07 09:06:54;;;;;;;8.07;5.30;;;;;;;14.78;100.00;96650.97;6151323;23;20336;-55
2022/10/07 09:09:27;;;;;;;7.45;5.68;;;;;;;14.81;100.00;96645.38;6176575;23;19997;-56
2022/10/07 09:11:55;;;;;;;6.68;5.82;;;;;;;14.88;100.00;96649.97;6176618;23;20019;-55
2022/10/07 09:14:27;;;;;;;9.15;6.03;;;;;;;14.94;100.00;96647.75;6175424;22;20320;-56
2022/10/07 09:16:57;;;;;;;9.38;6.47;;;;;;;15.01;100.00;96641.69;6176035;22;20016;-52
2022/10/07 09:19:38;;;;;;;12.10;8.13;;;;;;;15.07;100.00;96639.44;6175980;22;20309;-57
2022/10/07 09:22:31;;;;;;;11.32;6.15;;;;;;;15.18;100.00;96636.59;6174219;23;20012;-59
2022/10/07 09:25:12;;;;;;;6.65;6.07;;;;;;;15.30;100.00;96638.06;6175604;23;20020;-65
2022/10/07 09:27:38;;;;;;;6.80;5.30;;;;;;;15.40;100.00;96629.19;6176598;23;20024;-65
2022/10/07 09:30:05;;;;;;;8.48;5.40;;;;;;;15.40;100.00;96639.81;6174919;23;20012;-64
2022/10/07 09:32:31;;;;;;;7.25;6.18;;;;;;;15.46;100.00;96633.91;6174480;23;20013;-65
2022/10/07 09:34:56;;;;;;;9.40;5.93;;;;;;;15.47;100.00;96635.56;6175319;23;20001;-64
2022/10/07 09:37:25;;;;;;;6.13;5.55;;;;;;;15.54;100.00;96627.84;6176504;23;20005;-65
2022/10/07 09:39:53;;;;;;;10.30;6.40;;;;;;;15.59;100.00;96626.41;6176114;23;19997;-64
2022/10/07 09:42:42;;;;;;;9.32;6.68;;;;;;;15.59;100.00;96629.06;6175791;22;20012;-60
2022/10/07 09:45:25;;;;;;;7.28;6.63;;;;;;;15.69;100.00;96620.19;6175062;23;20004;-62
2022/10/07 09:47:54;;;;;;;10.18;6.53;;;;;;;15.82;98.49;96625.16;6175715;23;20080;-62
2022/10/07 09:50:39;;;;;;;8.65;5.72;;;;;;;15.98;98.42;96612.03;6176943;23;20427;-62
2022/10/07 09:53:20;;;;;;;6.75;6.00;;;;;;;16.18;95.83;96603.88;6176137;23;19997;-62
2022/10/07 09:55:46;;;;;;;7.50;6.57;;;;;;;16.20;94.89;96601.91;6149617;22;20009;-61
2022/10/07 09:58:18;;;;;;;8.68;6.30;;;;;;;16.15;95.64;96610.34;6176218;23;20012;-65
2022/10/07 10:00:46;;;;;;;6.43;5.80;;;;;;;16.26;95.93;96617.25;6176798;23;20036;-66
2022/10/07 10:03:12;;;;;;;8.80;6.03;;;;;;;16.45;93.79;96602.06;6175402;23;20005;-65
2022/10/07 10:05:49;;;;;;;6.05;5.55;;;;;;;16.50;93.28;96602.44;6176185;23;20058;-65
2022/10/07 10:08:17;;;;;;;8.80;6.85;;;;;;;16.71;92.60;96596.75;6174874;23;20001;-65
2022/10/07 10:10:55;;;;;;;7.63;6.93;;;;;;;16.73;91.24;96602.72;6176177;23;20016;-65
2022/10/07 10:13:31;;;;;;;12.48;6.15;;;;;;;16.63;92.43;96595.84;6177525;23;20036;-65
2022/10/07 10:15:57;;;;;;;8.63;6.63;;;;;;;16.78;89.45;96593.44;6176622;23;20005;-66
2022/10/07 10:18:25;;;;;;;9.13;6.05;;;;;;;16.87;89.71;96593.31;6176611;23;20069;-58
2022/10/07 10:20:51;;;;;;;9.73;6.40;;;;;;;16.77;89.45;96581.97;6177359;23;20004;-64
2022/10/07 10:23:32;;;;;;;6.90;6.32;;;;;;;16.78;91.34;96575.66;6176701;23;19997;-69
2022/10/07 10:26:25;;;;;;;6.75;5.60;;;;;;;17.01;90.64;96575.94;6176712;23;20078;-68
2022/10/07 10:29:25;;;;;;;7.07;6.40;;;;;;;17.13;89.38;96579.16;6177032;23;20339;-68
2022/10/07 10:32:12;;;;;;;6.65;5.55;;;;;;;17.48;87.05;96571.09;6176244;23;20001;-67
2022/10/07 10:35:14;;;;;;;6.32;5.75;;;;;;;17.57;85.70;96561.28;6149985;23;20009;-67
2022/10/07 10:37:39;;;;;;;6.78;5.90;;;;;;;17.84;83.68;96564.63;6176395;23;19998;-61
2022/10/07 10:40:34;;;;;;;11.48;6.05;;;;;;;17.55;86.06;96561.44;6175175;23;20005;-62
2022/10/07 10:43:23;;;;;;;8.25;5.18;;;;;;;17.76;85.45;96560.97;6175983;23;19993;-68
2022/10/07 10:46:00;;;;;;;11.20;6.20;;;;;;;17.80;83.97;96553.47;6175347;23;20076;-67
2022/10/07 10:48:31;;;;;;;10.48;6.20;;;;;;;17.86;85.18;96552.81;6177351;23;20003;-66
2022/10/07 10:51:09;;;;;;;15.30;7.10;;;;;;;17.99;85.62;96546.97;6175723;23;20005;-67
2022/10/07 10:53:50;;;;;;;8.32;7.53;;;;;;;18.19;84.42;96557.31;6149588;22;20347;-67
2022/10/07 10:56:43;;;;;;;10.70;7.43;;;;;;;18.31;83.22;96547.97;6176437;22;20469;-59
2022/10/07 10:59:19;;;;;;;8.35;6.97;;;;;;;18.31;82.21;96536.47;6176571;23;19998;-66
2022/10/07 11:01:58;;;;;;;12.07;7.07;;;;;;;18.38;83.28;96540.13;6174991;23;20324;-67
2022/10/07 11:04:42;;;;;;;14.70;7.57;;;;;;;18.25;84.14;96527.34;6175702;23;20054;-67
2022/10/07 11:07:22;;;;;;;9.95;6.30;;;;;;;18.40;83.18;96532.78;6175836;23;20459;-67
2022/10/07 11:09:53;;;;;;;7.95;6.40;;;;;;;18.49;82.86;96520.28;6175676;23;20430;-67
2022/10/07 11:12:30;;;;;;;7.72;6.22;;;;;;;18.76;81.29;96521.66;6174482;23;20019;-68
2022/10/07 11:15:01;;;;;;;8.55;6.35;;;;;;;18.69;80.83;96522.53;6176078;23;20005;-68
2022/10/07 11:17:30;;;;;;;14.63;6.50;;;;;;;18.65;82.52;96508.72;6176105;23;20005;-70
2022/10/07 11:20:24;;;;;;;6.97;5.70;;;;;;;18.63;81.41;96509.88;6175615;23;20408;-60
2022/10/07 11:23:17;;;;;;;8.95;6.75;;;;;;;18.46;82.02;96500.09;6175012;23;20009;-61
2022/10/07 11:26:09;;;;;;;16.23;6.80;;;;;;;18.58;80.63;96503.22;6175690;23;20001;-61
2022/10/07 11:28:38;;;;;;;8.10;6.28;;;;;;;18.45;81.62;96492.28;6156202;23;20082;-60
2022/10/07 11:31:32;;;;;;;8.48;7.05;;;;;;;18.37;83.25;96494.97;6175393;23;20118;-60
2022/10/07 11:34:21;;;;;;;10.63;6.68;;;;;;;18.37;81.85;96489.66;6176160;23;20001;-60
2022/10/07 11:37:01;;;;;;;7.97;6.07;;;;;;;18.41;78.59;96485.63;6174348;23;20036;-68
2022/10/07 11:39:28;;;;;;;19.05;7.10;;;;;;;18.39;79.62;96483.16;6176776;23;20070;-65
2022/10/07 11:41:58;;;;;;;14.60;6.28;;;;;;;18.65;78.67;96482.03;6176327;23;20009;-63